Time;durP1;ratioP1;P1;durP2;ratioP2;P2;SDS_P1;SDS_P2;PMS_P1;PMS_P2;Temp;Humidity;BMP_temperature;BMP_pressure;BME280_temperature;BME280_humidity;BME280_pressure;Samples;Min_cycle;Max_cycle;Signal;HPM_P1;HPM_P2
2021/03/14 00:02:09;;;;;;;2.65;1.58;;;8.50;74.50;;;;;;4961175;28;20051;-83
2021/03/14 00:04:37;;;;;;;3.63;1.60;;;8.50;74.60;;;;;;4974454;28;20037;-84
2021/03/14 00:07:03;;;;;;;1.60;1.40;;;8.50;74.60;;;;;;4975147;28;20122;-86
2021/03/14 00:09:31;;;;;;;1.52;1.20;;;8.50;75.20;;;;;;4977321;28;20030;-85
2021/03/14 00:11:57;;;;;;;1.45;1.30;;;8.50;74.60;;;;;;4976917;28;20069;-84
2021/03/14 00:14:24;;;;;;;2.33;1.42;;;8.50;74.60;;;;;;4994053;28;20054;-85
2021/03/14 00:16:51;;;;;;;1.88;1.23;;;8.50;74.60;;;;;;4993308;28;20137;-85
2021/03/14 00:19:17;;;;;;;2.88;1.25;;;8.50;74.60;;;;;;4973069;28;20048;-85
2021/03/14 00:21:43;;;;;;;2.03;1.27;;;8.50;74.60;;;;;;4959261;28;20145;-86
2021/03/14 00:24:09;;;;;;;1.55;1.20;;;8.50;74.60;;;;;;4958945;28;20059;-85
2021/03/14 00:26:35;;;;;;;2.25;1.50;;;8.50;74.60;;;;;;4970615;28;20046;-85
2021/03/14 00:29:01;;;;;;;2.35;1.35;;;8.50;74.60;;;;;;4973663;28;20043;-85
2021/03/14 00:31:27;;;;;;;2.08;1.23;;;8.40;74.50;;;;;;4977232;28;20034;-85
2021/03/14 00:33:52;;;;;;;2.15;1.13;;;8.40;74.50;;;;;;4977135;28;20031;-85
2021/03/14 00:36:18;;;;;;;2.30;1.38;;;8.50;74.60;;;;;;4990074;28;20038;-85
2021/03/14 00:38:44;;;;;;;2.35;1.40;;;8.40;74.50;;;;;;4945024;28;20117;-84
2021/03/14 00:41:11;;;;;;;2.55;1.73;;;8.50;74.60;;;;;;4994062;28;20109;-84
2021/03/14 00:43:37;;;;;;;2.60;1.48;;;8.40;74.50;;;;;;4976775;28;20022;-83
2021/03/14 00:46:03;;;;;;;3.13;1.58;;;8.40;74.50;;;;;;4973864;28;20034;-85
2021/03/14 00:48:31;;;;;;;2.45;1.45;;;8.40;74.50;;;;;;4977185;28;20476;-84
2021/03/14 00:50:57;;;;;;;4.00;1.45;;;8.40;74.50;;;;;;4992646;28;20072;-85
2021/03/14 00:53:32;;;;;;;;;;;8.40;74.50;;;;;;4959037;28;20033;-85
2021/03/14 00:56:01;;;;;;;1.85;1.30;;;8.40;74.50;;;;;;4985265;28;20339;-85
2021/03/14 00:58:26;;;;;;;1.92;1.30;;;8.40;74.30;;;;;;4973840;28;20117;-85
2021/03/14 01:00:53;;;;;;;3.47;1.52;;;8.40;74.50;;;;;;4966893;28;20057;-84
2021/03/14 01:03:19;;;;;;;2.22;1.38;;;8.40;74.60;;;;;;4976469;28;20052;-84
2021/03/14 01:05:45;;;;;;;3.50;1.70;;;8.30;74.50;;;;;;4976257;28;20030;-84
2021/03/14 01:08:18;;;;;;;2.80;1.67;;;8.40;74.60;;;;;;4976206;28;20030;-84
2021/03/14 01:10:46;;;;;;;2.20;1.20;;;8.40;74.60;;;;;;4977072;28;20085;-84
2021/03/14 01:13:20;;;;;;;1.77;1.45;;;8.40;74.60;;;;;;4992372;28;20559;-84
2021/03/14 01:15:46;;;;;;;2.30;1.60;;;8.40;74.60;;;;;;4973307;28;20130;-84
2021/03/14 01:18:12;;;;;;;1.88;1.38;;;8.40;74.60;;;;;;4969202;28;20085;-84
2021/03/14 01:20:41;;;;;;;2.45;1.48;;;8.40;74.60;;;;;;4961085;28;20105;-84
2021/03/14 01:23:07;;;;;;;2.38;1.80;;;8.40;74.60;;;;;;4960397;28;20117;-84
2021/03/14 01:25:32;;;;;;;3.85;1.50;;;8.30;74.60;;;;;;4963716;28;20070;-85
2021/03/14 01:27:58;;;;;;;3.85;2.05;;;8.40;74.60;;;;;;4979650;28;20069;-85
2021/03/14 01:30:24;;;;;;;2.20;1.20;;;8.30;74.60;;;;;;4961744;28;20118;-84
2021/03/14 01:32:50;;;;;;;3.05;1.30;;;8.40;74.60;;;;;;4961471;28;20026;-84
2021/03/14 01:35:16;;;;;;;2.28;1.23;;;8.40;74.60;;;;;;4979826;28;20073;-85
2021/03/14 01:37:44;;;;;;;2.38;1.42;;;8.40;74.60;;;;;;4979913;28;20030;-84
2021/03/14 01:40:11;;;;;;;2.85;1.30;;;8.40;74.60;;;;;;4979756;28;20546;-84
2021/03/14 01:42:36;;;;;;;2.05;1.40;;;8.40;74.60;;;;;;4995986;28;20034;-85
2021/03/14 01:45:06;;;;;;;1.67;1.30;;;8.40;74.60;;;;;;4963332;28;20026;-85
2021/03/14 01:47:36;;;;;;;1.33;1.15;;;8.40;74.60;;;;;;4979398;28;20057;-84
2021/03/14 01:50:07;;;;;;;2.50;1.40;;;8.40;74.60;;;;;;4995692;28;20034;-84
2021/03/14 01:52:33;;;;;;;2.40;1.50;;;8.40;74.60;;;;;;4984948;28;20153;-84
2021/03/14 01:55:00;;;;;;;1.85;1.30;;;8.40;74.60;;;;;;4963266;28;20113;-83
2021/03/14 01:57:27;;;;;;;3.95;1.40;;;8.40;74.60;;;;;;4996040;28;20045;-84
2021/03/14 01:59:53;;;;;;;1.95;1.27;;;8.40;74.60;;;;;;4978297;28;20093;-84
2021/03/14 02:02:20;;;;;;;3.17;1.60;;;8.40;74.60;;;;;;4962903;28;20045;-84
2021/03/14 02:04:46;;;;;;;2.70;1.65;;;8.40;74.70;;;;;;4979483;28;20122;-85
2021/03/14 02:07:13;;;;;;;1.40;1.17;;;8.40;74.60;;;;;;4979500;28;20172;-85
2021/03/14 02:09:39;;;;;;;1.40;1.15;;;8.40;74.60;;;;;;4963320;28;20033;-85
2021/03/14 02:12:08;;;;;;;3.13;1.58;;;8.40;74.60;;;;;;4959355;28;20027;-84
2021/03/14 02:14:38;;;;;;;1.88;1.30;;;8.40;74.70;;;;;;4979328;28;20042;-85
2021/03/14 02:17:06;;;;;;;2.28;1.30;;;8.40;74.70;;;;;;4978746;28;20037;-85
2021/03/14 02:19:35;;;;;;;3.88;1.70;;;8.40;74.60;;;;;;4979125;28;20049;-84
2021/03/14 02:22:01;;;;;;;3.65;1.50;;;8.40;74.70;;;;;;4979106;28;20023;-85
2021/03/14 02:24:39;;;;;;;2.92;1.67;;;8.40;74.60;;;;;;4978944;28;20121;-84
2021/03/14 02:27:06;;;;;;;1.58;1.20;;;8.30;74.60;;;;;;4978577;28;20030;-86
2021/03/14 02:29:34;;;;;;;2.03;1.30;;;8.40;74.70;;;;;;4990014;28;20046;-84
2021/03/14 02:32:03;;;;;;;1.67;1.40;;;8.40;74.70;;;;;;5005587;28;20031;-85
2021/03/14 02:34:36;;;;;;;2.47;1.40;;;8.40;74.70;;;;;;4975141;28;20026;-85
2021/03/14 02:37:05;;;;;;;2.13;1.38;;;8.40;74.70;;;;;;4995126;28;20482;-84
2021/03/14 02:39:32;;;;;;;1.98;1.50;;;8.40;74.60;;;;;;4994308;28;20117;-85
2021/03/14 02:41:59;;;;;;;3.35;1.38;;;8.40;74.60;;;;;;4978831;28;20077;-84
2021/03/14 02:44:37;;;;;;;2.50;1.35;;;8.40;74.70;;;;;;4978764;28;20038;-85
2021/03/14 02:47:05;;;;;;;1.38;1.27;;;8.40;74.70;;;;;;4982285;28;20031;-85
2021/03/14 02:49:32;;;;;;;2.78;1.60;;;8.40;74.60;;;;;;4980964;28;20026;-85
2021/03/14 02:51:58;;;;;;;3.35;1.55;;;8.40;74.60;;;;;;4979065;28;20061;-85
2021/03/14 02:54:25;;;;;;;1.50;1.13;;;8.40;74.60;;;;;;4993893;28;20026;-84
2021/03/14 02:56:52;;;;;;;1.98;1.30;;;8.40;74.70;;;;;;4995164;28;20041;-85
2021/03/14 02:59:20;;;;;;;2.63;1.50;;;8.40;74.70;;;;;;4974742;28;20375;-84
2021/03/14 03:01:48;;;;;;;2.08;1.30;;;8.40;74.70;;;;;;4990247;28;20026;-84
2021/03/14 03:04:17;;;;;;;2.08;1.40;;;8.40;75.30;;;;;;4994327;28;20037;-84
2021/03/14 03:06:45;;;;;;;3.70;1.63;;;8.40;74.60;;;;;;4994079;28;20045;-84
2021/03/14 03:09:11;;;;;;;3.17;1.33;;;8.40;74.60;;;;;;4977148;28;20430;-85
2021/03/14 03:11:39;;;;;;;4.47;1.75;;;8.40;75.30;;;;;;4993960;28;20093;-84
2021/03/14 03:14:06;;;;;;;2.92;1.42;;;8.40;74.60;;;;;;4995032;28;20512;-84
2021/03/14 03:16:32;;;;;;;3.65;1.55;;;8.40;74.60;;;;;;4988492;28;20034;-84
2021/03/14 03:18:58;;;;;;;2.88;1.40;;;8.40;74.60;;;;;;4991963;28;20038;-85
2021/03/14 03:21:26;;;;;;;3.17;1.35;;;8.40;74.60;;;;;;4994420;28;20030;-85
2021/03/14 03:23:52;;;;;;;2.13;1.30;;;8.40;74.60;;;;;;4978164;28;20026;-85
2021/03/14 03:26:18;;;;;;;4.32;1.48;;;8.40;74.60;;;;;;4977457;28;20034;-85
2021/03/14 03:28:44;;;;;;;1.40;1.30;;;8.40;74.60;;;;;;4977730;28;20561;-85
2021/03/14 03:31:10;;;;;;;2.00;1.30;;;8.40;74.60;;;;;;4977900;28;20034;-85
2021/03/14 03:33:37;;;;;;;2.33;1.30;;;8.40;74.60;;;;;;4964223;28;20034;-84
2021/03/14 03:36:04;;;;;;;1.95;1.65;;;8.40;74.60;;;;;;4977570;28;20041;-84
2021/03/14 03:38:34;;;;;;;4.10;1.85;;;8.40;74.60;;;;;;4977058;28;20030;-85
2021/03/14 03:41:00;;;;;;;2.72;1.35;;;8.40;74.60;;;;;;4993824;28;20471;-85
2021/03/14 03:43:35;;;;;;;3.10;1.33;;;8.40;74.60;;;;;;4977293;28;20061;-85
2021/03/14 03:46:05;;;;;;;3.15;1.45;;;8.40;74.60;;;;;;4976784;28;20505;-85
2021/03/14 03:48:44;;;;;;;2.22;1.33;;;8.40;74.60;;;;;;4993089;28;20030;-85
2021/03/14 03:51:11;;;;;;;2.72;1.30;;;8.40;74.70;;;;;;4977510;28;20057;-86
2021/03/14 03:53:38;;;;;;;3.58;1.92;;;8.40;74.70;;;;;;4961500;28;20034;-85
2021/03/14 03:56:05;;;;;;;3.60;1.27;;;8.40;75.20;;;;;;4977995;28;20034;-85
2021/03/14 03:58:32;;;;;;;3.17;1.55;;;8.30;74.60;;;;;;4957767;28;20539;-85
2021/03/14 04:01:01;;;;;;;2.42;1.30;;;8.40;74.60;;;;;;4994042;28;20062;-84
2021/03/14 04:03:27;;;;;;;2.67;1.40;;;8.40;74.60;;;;;;4980730;28;20089;-85
2021/03/14 04:05:58;;;;;;;2.78;1.45;;;8.40;74.60;;;;;;4972976;28;20026;-85
2021/03/14 04:08:25;;;;;;;2.78;1.38;;;8.30;74.60;;;;;;4988061;28;20031;-84
2021/03/14 04:10:52;;;;;;;2.90;1.50;;;8.40;74.60;;;;;;4987641;28;20022;-85
2021/03/14 04:13:18;;;;;;;2.22;1.40;;;8.30;74.60;;;;;;4980455;28;20031;-83
2021/03/14 04:15:44;;;;;;;1.95;1.40;;;8.40;74.70;;;;;;4959602;28;20053;-83
2021/03/14 04:18:11;;;;;;;1.85;1.30;;;8.30;74.60;;;;;;4993053;28;20026;-84
2021/03/14 04:20:40;;;;;;;3.85;1.50;;;8.30;74.60;;;;;;4976982;28;20395;-85
2021/03/14 04:23:20;;;;;;;1.90;1.30;;;8.30;74.60;;;;;;4992777;28;20034;-84
2021/03/14 04:25:51;;;;;;;2.80;1.40;;;8.30;74.60;;;;;;4977214;28;20034;-85
2021/03/14 04:28:18;;;;;;;3.03;1.48;;;8.30;74.60;;;;;;4984971;28;20105;-85
2021/03/14 04:30:44;;;;;;;2.17;1.30;;;8.30;74.60;;;;;;4993404;28;20117;-85
2021/03/14 04:33:10;;;;;;;2.50;1.48;;;8.30;74.60;;;;;;4992411;28;20046;-84
2021/03/14 04:35:39;;;;;;;4.30;1.63;;;8.30;74.60;;;;;;4988753;28;20027;-84
2021/03/14 04:38:06;;;;;;;2.38;1.40;;;8.20;74.60;;;;;;4993106;28;20036;-84
2021/03/14 04:40:32;;;;;;;1.77;1.23;;;8.30;74.60;;;;;;4976719;28;20026;-82
2021/03/14 04:42:59;;;;;;;2.85;1.50;;;8.30;74.60;;;;;;4974263;28;20121;-85
2021/03/14 04:45:25;;;;;;;1.80;1.50;;;8.30;74.60;;;;;;4976414;28;20129;-84
2021/03/14 04:47:51;;;;;;;2.70;1.33;;;8.30;74.60;;;;;;4976620;28;20092;-84
2021/03/14 04:50:28;;;;;;;3.30;1.58;;;8.30;74.60;;;;;;4987372;28;20054;-85
2021/03/14 04:52:58;;;;;;;2.88;1.40;;;8.20;74.60;;;;;;4985764;28;20026;-84
2021/03/14 04:55:26;;;;;;;1.92;1.58;;;8.30;74.60;;;;;;4973027;28;20026;-84
2021/03/14 04:57:54;;;;;;;2.20;1.25;;;8.20;74.60;;;;;;4960619;28;20030;-84
2021/03/14 05:00:21;;;;;;;2.33;1.35;;;8.20;74.60;;;;;;4992017;28;20085;-85
2021/03/14 05:02:55;;;;;;;2.45;1.45;;;8.20;74.60;;;;;;4979909;28;20027;-83
2021/03/14 05:05:21;;;;;;;1.90;1.42;;;8.20;74.60;;;;;;4989732;28;20138;-85
2021/03/14 05:07:48;;;;;;;2.50;1.55;;;8.20;74.60;;;;;;4979004;28;20038;-84
2021/03/14 05:10:19;;;;;;;2.10;1.45;;;8.20;74.60;;;;;;4956185;28;20490;-84
2021/03/14 05:12:46;;;;;;;2.20;1.20;;;8.20;74.70;;;;;;4976630;28;20027;-84
2021/03/14 05:15:14;;;;;;;1.58;1.27;;;8.20;74.60;;;;;;4992582;28;20029;-84
2021/03/14 05:17:41;;;;;;;2.75;1.30;;;8.20;74.70;;;;;;4996480;28;20034;-83
2021/03/14 05:20:10;;;;;;;1.65;1.30;;;8.20;74.70;;;;;;4978542;28;20038;-84
2021/03/14 05:22:37;;;;;;;2.65;1.55;;;8.20;74.70;;;;;;4993017;28;20398;-85
2021/03/14 05:25:05;;;;;;;1.77;1.23;;;8.20;74.70;;;;;;4976733;28;20035;-83
2021/03/14 05:27:32;;;;;;;3.58;1.67;;;8.20;74.70;;;;;;4976657;28;20077;-83
2021/03/14 05:29:58;;;;;;;2.90;1.50;;;8.20;74.70;;;;;;4963530;28;20054;-84
2021/03/14 05:32:24;;;;;;;3.28;1.52;;;8.20;74.70;;;;;;4976034;28;20125;-84
2021/03/14 05:34:50;;;;;;;2.13;1.33;;;8.20;74.70;;;;;;4964779;28;20486;-84
2021/03/14 05:37:16;;;;;;;2.22;1.65;;;8.20;74.70;;;;;;4957991;28;20054;-83
2021/03/14 05:39:42;;;;;;;3.97;1.60;;;8.20;74.70;;;;;;4985364;28;20125;-82
2021/03/14 05:42:08;;;;;;;1.58;1.30;;;8.20;74.70;;;;;;4961425;28;20027;-83
2021/03/14 05:44:35;;;;;;;1.63;1.45;;;8.20;74.70;;;;;;4974701;28;20117;-82
2021/03/14 05:47:01;;;;;;;2.40;1.50;;;8.20;74.70;;;;;;4987795;28;20050;-82
2021/03/14 05:49:27;;;;;;;2.17;1.38;;;8.20;74.70;;;;;;4959255;28;20027;-82
2021/03/14 05:51:56;;;;;;;2.45;1.60;;;8.20;74.70;;;;;;4943748;28;20045;-81
2021/03/14 05:54:23;;;;;;;3.30;1.48;;;8.20;74.80;;;;;;4988993;28;20054;-81
2021/03/14 05:56:49;;;;;;;2.67;1.50;;;8.20;74.70;;;;;;4956302;28;20042;-82
2021/03/14 05:59:19;;;;;;;2.72;1.63;;;8.20;74.80;;;;;;4972243;28;20776;-81
2021/03/14 06:01:50;;;;;;;1.92;1.70;;;8.20;74.80;;;;;;4986777;28;20027;-82
2021/03/14 06:04:17;;;;;;;2.80;1.50;;;8.20;74.80;;;;;;4973883;28;20110;-81
2021/03/14 06:06:43;;;;;;;3.35;1.70;;;8.20;74.80;;;;;;4976995;28;20035;-81
2021/03/14 06:09:11;;;;;;;4.43;2.20;;;8.20;74.80;;;;;;4991116;28;20042;-81
2021/03/14 06:11:37;;;;;;;2.17;1.58;;;8.20;74.80;;;;;;4995615;28;20033;-81
2021/03/14 06:14:03;;;;;;;3.17;1.63;;;8.20;74.80;;;;;;4960087;28;20396;-81
2021/03/14 06:16:29;;;;;;;2.35;1.60;;;8.20;74.80;;;;;;4978092;28;20045;-81
2021/03/14 06:18:55;;;;;;;5.28;2.30;;;8.20;74.80;;;;;;4988687;28;20109;-80
2021/03/14 06:21:23;;;;;;;1.98;1.60;;;8.20;74.80;;;;;;4995162;28;20027;-80
2021/03/14 06:24:07;;;;;;;3.13;1.80;;;8.20;74.90;;;;;;4993250;28;20424;-81
2021/03/14 06:26:39;;;;;;;2.45;1.60;;;8.20;75.00;;;;;;4977390;28;20034;-81
2021/03/14 06:29:34;;;;;;;2.00;1.80;;;8.20;74.80;;;;;;4987754;28;20208;-81
2021/03/14 06:32:02;;;;;;;2.20;1.70;;;8.10;75.00;;;;;;4953704;28;20053;-81
2021/03/14 06:34:35;;;;;;;2.78;1.90;;;8.10;74.80;;;;;;4982168;28;20130;-81
2021/03/14 06:37:06;;;;;;;2.30;1.60;;;8.20;75.00;;;;;;4993970;28;20038;-81
2021/03/14 06:39:34;;;;;;;1.75;1.60;;;8.10;74.90;;;;;;4993922;28;20121;-81
2021/03/14 06:42:00;;;;;;;1.90;1.70;;;8.10;74.90;;;;;;4994361;28;20109;-81
2021/03/14 06:44:31;;;;;;;1.55;1.40;;;8.10;74.90;;;;;;4978112;28;20109;-81
2021/03/14 06:46:58;;;;;;;2.03;1.70;;;8.10;74.90;;;;;;4993086;28;20060;-82
2021/03/14 06:49:29;;;;;;;3.63;2.10;;;8.20;75.00;;;;;;4994382;28;20046;-81
2021/03/14 06:51:56;;;;;;;2.30;1.70;;;8.10;74.90;;;;;;4988541;28;20035;-81
2021/03/14 06:54:28;;;;;;;3.42;1.88;;;8.20;75.00;;;;;;4985698;28;20061;-82
2021/03/14 06:57:10;;;;;;;2.10;1.80;;;8.20;75.00;;;;;;4994286;28;20027;-82
2021/03/14 06:59:43;;;;;;;3.35;1.88;;;8.10;75.00;;;;;;4982278;28;20026;-82
2021/03/14 07:02:10;;;;;;;2.17;2.00;;;8.20;75.00;;;;;;4979931;28;20023;-82
2021/03/14 07:04:44;;;;;;;2.58;1.80;;;8.10;75.00;;;;;;4977675;28;20172;-82
2021/03/14 07:07:18;;;;;;;1.92;1.83;;;8.10;75.00;;;;;;4993183;28;20122;-81
2021/03/14 07:09:45;;;;;;;2.83;1.73;;;8.10;75.00;;;;;;4977675;28;20031;-82
2021/03/14 07:12:22;;;;;;;2.20;1.85;;;8.10;75.00;;;;;;4977077;28;20446;-82
2021/03/14 07:14:49;;;;;;;2.47;1.80;;;8.10;75.10;;;;;;4974465;28;20026;-82
2021/03/14 07:17:34;;;;;;;2.20;1.85;;;8.10;75.00;;;;;;4961794;28;20092;-82
2021/03/14 07:20:08;;;;;;;2.20;1.77;;;8.10;75.20;;;;;;4994686;28;20035;-82
2021/03/14 07:22:34;;;;;;;2.42;1.70;;;8.10;75.10;;;;;;4977006;28;20379;-82
2021/03/14 07:25:00;;;;;;;2.60;1.90;;;8.10;75.00;;;;;;4977271;28;20022;-81
2021/03/14 07:27:29;;;;;;;1.80;1.70;;;8.10;75.10;;;;;;4977301;28;20046;-82
2021/03/14 07:29:57;;;;;;;2.15;1.95;;;8.10;75.10;;;;;;4993081;28;20439;-82
2021/03/14 07:32:24;;;;;;;2.38;1.65;;;8.20;75.20;;;;;;4994665;28;20080;-82
2021/03/14 07:34:51;;;;;;;2.35;2.00;;;8.10;75.10;;;;;;4976981;28;20023;-83
2021/03/14 07:37:18;;;;;;;2.25;1.75;;;8.20;75.20;;;;;;4977670;28;20378;-81
2021/03/14 07:39:47;;;;;;;2.10;1.90;;;8.20;75.10;;;;;;4974833;28;20547;-82
2021/03/14 07:42:21;;;;;;;2.70;2.17;;;8.20;75.20;;;;;;4963057;28;20061;-82
2021/03/14 07:44:48;;;;;;;2.47;2.00;;;8.20;75.20;;;;;;4989387;28;20463;-82
2021/03/14 07:47:15;;;;;;;3.47;1.98;;;8.20;75.10;;;;;;4985293;28;20039;-82
2021/03/14 07:49:47;;;;;;;2.28;2.08;;;8.20;75.10;;;;;;4983079;28;20034;-82
2021/03/14 07:52:21;;;;;;;2.30;1.80;;;8.10;75.10;;;;;;4990347;28;20030;-82
2021/03/14 07:54:52;;;;;;;2.60;2.05;;;8.20;75.20;;;;;;4993715;28;20034;-83
2021/03/14 07:57:21;;;;;;;2.53;2.10;;;8.20;75.20;;;;;;4992654;28;20391;-82
2021/03/14 07:59:47;;;;;;;2.10;1.77;;;8.20;75.20;;;;;;4992783;28;20042;-82
2021/03/14 08:02:19;;;;;;;2.63;2.20;;;8.20;75.30;;;;;;4981249;28;20027;-82
2021/03/14 08:04:49;;;;;;;2.45;2.20;;;8.20;75.30;;;;;;4984859;28;20026;-82
2021/03/14 08:07:16;;;;;;;2.78;1.98;;;8.20;75.30;;;;;;4971374;28;20089;-82
2021/03/14 08:09:46;;;;;;;3.08;2.25;;;8.20;75.30;;;;;;4959430;28;20039;-79
2021/03/14 08:12:17;;;;;;;3.60;2.55;;;8.20;75.90;;;;;;4993311;28;20030;-89
2021/03/14 08:14:45;;;;;;;2.80;2.28;;;8.20;75.30;;;;;;4990254;28;20034;-80
2021/03/14 08:17:35;;;;;;;2.78;2.10;;;8.20;75.30;;;;;;4973290;28;20442;-80
2021/03/14 08:20:01;;;;;;;3.70;2.50;;;8.20;75.50;;;;;;4957002;28;20049;-80
2021/03/14 08:22:36;;;;;;;3.17;2.30;;;8.20;75.30;;;;;;4991817;28;20081;-80
2021/03/14 08:25:27;;;;;;;3.17;2.25;;;8.30;75.40;;;;;;4975680;28;20160;-79
2021/03/14 08:27:57;;;;;;;3.05;2.28;;;8.20;75.50;;;;;;4988324;28;20026;-79
2021/03/14 08:30:29;;;;;;;3.70;2.85;;;8.20;75.30;;;;;;4991726;28;20026;-80
2021/03/14 08:33:26;;;;;;;2.75;2.30;;;8.30;75.50;;;;;;4991354;28;20045;-79
2021/03/14 08:36:03;;;;;;;2.67;2.10;;;8.30;75.60;;;;;;4976633;28;20034;-80
2021/03/14 08:38:43;;;;;;;3.75;2.40;;;8.30;75.40;;;;;;4986298;28;20037;-80
2021/03/14 08:41:19;;;;;;;3.00;2.30;;;8.30;75.50;;;;;;4991448;28;20030;-80
2021/03/14 08:43:55;;;;;;;3.63;2.33;;;8.30;75.50;;;;;;4990981;28;20048;-80
2021/03/14 08:46:43;;;;;;;3.58;2.55;;;8.30;75.50;;;;;;4985893;28;20036;-80
2021/03/14 08:49:09;;;;;;;4.13;2.30;;;8.40;75.60;;;;;;4981497;28;20478;-79
2021/03/14 08:51:35;;;;;;;3.72;2.58;;;8.40;75.40;;;;;;4973769;28;20114;-80
2021/03/14 08:54:01;;;;;;;3.47;2.50;;;8.40;75.40;;;;;;4965577;28;20113;-79
2021/03/14 08:56:36;;;;;;;6.03;2.47;;;8.40;75.40;;;;;;4982801;28;20109;-80
2021/03/14 08:59:11;;;;;;;3.00;2.47;;;8.40;75.40;;;;;;4974790;28;20037;-79
2021/03/14 09:01:43;;;;;;;3.13;2.45;;;8.40;75.50;;;;;;4975577;28;20034;-80
2021/03/14 09:04:32;;;;;;;4.13;2.53;;;8.50;75.50;;;;;;4977955;28;20034;-80
2021/03/14 09:07:21;;;;;;;3.10;2.47;;;8.50;75.40;;;;;;4975876;28;20054;-80
2021/03/14 09:09:49;;;;;;;3.35;2.60;;;8.50;75.40;;;;;;4983781;28;20030;-81
2021/03/14 09:12:35;;;;;;;3.63;2.30;;;8.50;75.40;;;;;;4979164;28;20026;-88
2021/03/14 09:15:19;;;;;;;4.35;2.60;;;8.60;75.40;;;;;;4978636;28;20038;-85
2021/03/14 09:18:13;;;;;;;4.10;2.60;;;8.60;75.40;;;;;;4961662;28;20126;-84
2021/03/14 09:20:39;;;;;;;4.55;2.55;;;8.60;75.30;;;;;;4975743;28;20502;-81
2021/03/14 09:23:06;;;;;;;2.88;2.35;;;8.60;75.40;;;;;;4972754;28;20037;-82
2021/03/14 09:25:51;;;;;;;3.47;2.50;;;8.70;75.40;;;;;;4973345;28;20463;-87
2021/03/14 09:28:18;;;;;;;3.97;2.50;;;8.70;75.50;;;;;;4989936;28;20047;-84
2021/03/14 09:30:48;;;;;;;4.25;2.53;;;8.70;75.40;;;;;;4987841;28;20038;-84
2021/03/14 09:33:14;;;;;;;4.03;2.70;;;8.80;75.40;;;;;;4972924;28;20057;-82
2021/03/14 09:36:06;;;;;;;4.07;2.33;;;8.80;75.40;;;;;;4981434;28;20038;-83
2021/03/14 09:38:41;;;;;;;2.95;2.55;;;8.80;75.30;;;;;;4987272;28;20042;-83
2021/03/14 09:41:16;;;;;;;3.53;2.80;;;8.90;75.40;;;;;;4972308;28;20034;-83
2021/03/14 09:43:44;;;;;;;4.38;2.58;;;8.90;75.40;;;;;;4954225;28;20027;-80
2021/03/14 09:46:18;;;;;;;4.97;2.80;;;8.90;75.40;;;;;;4960554;28;20085;-82
2021/03/14 09:49:16;;;;;;;3.40;2.53;;;8.90;75.30;;;;;;4965571;28;20046;-85
2021/03/14 09:52:00;;;;;;;3.90;2.42;;;9.00;75.30;;;;;;4992346;28;20104;-83
2021/03/14 09:54:31;;;;;;;3.65;2.38;;;9.00;75.30;;;;;;4961468;28;20030;-83
2021/03/14 09:56:57;;;;;;;2.95;2.58;;;9.00;75.40;;;;;;4976878;28;20104;-84
2021/03/14 09:59:27;;;;;;;4.00;2.58;;;9.00;75.40;;;;;;4991971;28;20034;-89
2021/03/14 10:02:05;;;;;;;2.85;2.42;;;9.00;75.40;;;;;;4994130;28;20050;-88
2021/03/14 10:04:48;;;;;;;3.05;2.33;;;9.10;75.50;;;;;;4978399;28;20058;-88
2021/03/14 10:07:25;;;;;;;3.83;2.40;;;9.10;75.40;;;;;;4992600;28;20034;-89
2021/03/14 10:09:53;;;;;;;4.35;2.67;;;9.10;75.40;;;;;;4991753;28;20090;-90
2021/03/14 10:12:28;;;;;;;3.47;2.58;;;9.20;75.30;;;;;;4977245;28;20019;-91
2021/03/14 10:14:55;;;;;;;4.57;2.55;;;9.20;75.30;;;;;;4977480;28;20026;-90
2021/03/14 10:17:21;;;;;;;3.10;2.53;;;9.20;75.30;;;;;;4978013;28;20051;-91
2021/03/14 10:19:48;;;;;;;4.97;2.35;;;9.20;75.20;;;;;;4943713;28;20117;-91
2021/03/14 10:22:31;;;;;;;3.08;2.50;;;9.30;75.20;;;;;;4963999;28;20054;-90
2021/03/14 10:25:31;;;;;;;3.67;2.50;;;9.30;75.30;;;;;;4945109;28;20038;-82
2021/03/14 10:28:17;;;;;;;2.95;2.30;;;9.30;75.10;;;;;;4978516;28;20364;-83
2021/03/14 10:31:09;;;;;;;3.22;2.40;;;9.40;75.30;;;;;;4989963;28;20137;-82
2021/03/14 10:33:45;;;;;;;3.95;2.30;;;9.40;75.10;;;;;;4971232;28;20027;-84
2021/03/14 10:36:15;;;;;;;3.42;2.75;;;9.40;75.10;;;;;;4976867;28;20046;-83
2021/03/14 10:38:48;;;;;;;2.90;2.28;;;9.40;75.10;;;;;;4979317;28;20037;-83
2021/03/14 10:41:23;;;;;;;2.85;2.22;;;9.50;75.10;;;;;;4979062;28;20042;-84
2021/03/14 10:44:03;;;;;;;4.30;2.47;;;9.50;75.10;;;;;;4979842;28;20039;-80
2021/03/14 10:46:51;;;;;;;3.17;2.40;;;9.50;75.00;;;;;;4973660;28;20098;-83
2021/03/14 10:49:37;;;;;;;2.67;2.35;;;9.60;75.10;;;;;;4972207;28;20038;-83
2021/03/14 10:52:13;;;;;;;2.88;2.00;;;9.60;75.20;;;;;;4957222;28;20329;-83
2021/03/14 10:54:40;;;;;;;3.67;2.10;;;9.60;75.00;;;;;;4948952;28;20233;-83
2021/03/14 10:57:19;;;;;;;2.97;2.30;;;9.70;75.10;;;;;;4919577;29;20627;-85
2021/03/14 11:00:05;;;;;;;2.65;2.10;;;9.70;75.10;;;;;;4948992;28;20035;-79
2021/03/14 11:02:42;;;;;;;2.67;2.03;;;9.70;75.20;;;;;;4949081;28;20038;-84
2021/03/14 11:05:11;;;;;;;3.53;2.22;;;9.80;75.10;;;;;;4948817;28;20170;-81
2021/03/14 11:07:57;;;;;;;3.15;2.08;;;9.80;75.10;;;;;;4932476;29;20048;-82
2021/03/14 11:10:31;;;;;;;3.25;2.20;;;9.80;75.30;;;;;;4948642;28;20047;-85
2021/03/14 11:13:16;;;;;;;3.28;1.95;;;9.90;75.10;;;;;;4933313;29;20621;-82
2021/03/14 11:15:48;;;;;;;2.60;2.20;;;9.90;75.20;;;;;;4934635;29;20488;-84
2021/03/14 11:18:24;;;;;;;2.17;1.85;;;10.00;75.10;;;;;;4952150;28;20588;-81
2021/03/14 11:21:15;;;;;;;2.85;1.75;;;10.00;75.10;;;;;;4951261;28;20041;-82
2021/03/14 11:23:45;;;;;;;2.20;1.95;;;10.00;75.00;;;;;;4947650;29;20377;-84
2021/03/14 11:26:11;;;;;;;2.78;1.90;;;10.10;75.10;;;;;;4963221;28;20062;-81
2021/03/14 11:28:47;;;;;;;1.98;1.80;;;10.10;75.00;;;;;;4997560;28;20054;-81
2021/03/14 11:31:17;;;;;;;3.88;1.80;;;10.10;75.10;;;;;;4978362;28;20038;-84
2021/03/14 11:33:43;;;;;;;2.28;1.77;;;10.20;75.00;;;;;;4950367;28;20037;-81
2021/03/14 11:36:18;;;;;;;2.53;1.73;;;10.20;75.00;;;;;;4976884;28;20120;-88
2021/03/14 11:39:00;;;;;;;2.17;1.70;;;10.30;75.00;;;;;;4985598;28;20033;-79
2021/03/14 11:41:51;;;;;;;2.88;1.73;;;10.20;74.90;;;;;;4989468;28;20031;-82
2021/03/14 11:44:46;;;;;;;2.25;1.60;;;10.30;74.90;;;;;;4989149;28;20034;-82
2021/03/14 11:47:12;;;;;;;2.05;1.65;;;10.40;74.90;;;;;;4991702;28;20034;-81
2021/03/14 11:50:05;;;;;;;1.92;1.50;;;10.40;75.00;;;;;;4956372;28;20031;-81
2021/03/14 11:52:31;;;;;;;2.92;1.60;;;10.40;75.00;;;;;;4960804;28;20057;-81
2021/03/14 11:54:57;;;;;;;1.65;1.52;;;10.40;75.00;;;;;;4992423;28;20471;-83
2021/03/14 11:57:23;;;;;;;1.65;1.40;;;10.50;75.00;;;;;;4971977;28;20058;-80
2021/03/14 11:59:49;;;;;;;2.50;1.88;;;10.50;75.00;;;;;;4977030;28;20533;-81
2021/03/14 12:02:14;;;;;;;1.63;1.52;;;10.60;75.10;;;;;;4964030;28;20204;-84
2021/03/14 12:05:00;;;;;;;2.33;1.50;;;10.60;75.00;;;;;;4991103;28;20045;-87
2021/03/14 12:07:27;;;;;;;2.97;1.70;;;10.60;75.00;;;;;;4988972;28;20053;-84
2021/03/14 12:09:54;;;;;;;1.85;1.50;;;10.60;75.00;;;;;;4974505;28;20159;-81
2021/03/14 12:12:20;;;;;;;1.50;1.40;;;10.70;75.00;;;;;;4989333;28;20038;-83
2021/03/14 12:14:55;;;;;;;2.75;2.03;;;10.70;75.00;;;;;;4986711;28;20062;-83
2021/03/14 12:17:26;;;;;;;2.35;1.67;;;10.70;74.90;;;;;;4958536;28;20038;-83
2021/03/14 12:20:14;;;;;;;2.10;1.45;;;10.80;75.00;;;;;;4962276;28;20036;-87
2021/03/14 12:22:50;;;;;;;1.75;1.40;;;10.80;74.90;;;;;;4946251;28;20113;-88
2021/03/14 12:25:17;;;;;;;2.25;1.60;;;10.90;74.90;;;;;;4942368;28;20041;-88
2021/03/14 12:27:43;;;;;;;2.17;1.50;;;10.90;74.90;;;;;;4981043;28;20050;-81
2021/03/14 12:30:10;;;;;;;1.48;1.35;;;10.90;74.90;;;;;;4943400;28;20125;-84
2021/03/14 12:32:36;;;;;;;1.60;1.35;;;11.00;75.00;;;;;;4966052;28;20047;-81
2021/03/14 12:35:10;;;;;;;1.50;1.40;;;11.00;74.90;;;;;;4941058;28;20042;-84
2021/03/14 12:37:36;;;;;;;2.20;1.65;;;11.00;74.80;;;;;;4983651;28;20113;-81
2021/03/14 12:40:07;;;;;;;4.55;1.50;;;11.10;74.80;;;;;;4957396;28;20068;-81
2021/03/14 12:42:34;;;;;;;2.58;1.70;;;11.10;74.70;;;;;;4972721;28;20126;-82
2021/03/14 12:45:03;;;;;;;2.20;1.35;;;11.20;74.70;;;;;;4974227;28;20035;-87
2021/03/14 12:47:32;;;;;;;2.38;1.65;;;11.20;74.70;;;;;;4972596;28;20070;-85
2021/03/14 12:50:01;;;;;;;1.45;1.30;;;11.20;74.60;;;;;;4972209;28;20065;-89
2021/03/14 12:52:30;;;;;;;1.80;1.50;;;11.20;74.60;;;;;;4955078;28;20050;-90
2021/03/14 12:55:22;;;;;;;2.42;1.67;;;11.30;74.60;;;;;;4971593;28;20046;-92
2021/03/14 12:57:50;;;;;;;2.00;1.40;;;11.30;74.70;;;;;;4975452;28;20042;-80
2021/03/14 13:00:25;;;;;;;2.30;1.40;;;11.40;74.60;;;;;;4959075;28;20141;-81
2021/03/14 13:02:51;;;;;;;3.30;1.50;;;11.40;74.60;;;;;;4979159;28;20121;-83
2021/03/14 13:05:19;;;;;;;1.73;1.40;;;11.40;74.60;;;;;;4957614;28;20092;-81
2021/03/14 13:07:47;;;;;;;1.73;1.30;;;11.40;74.60;;;;;;4992281;28;20040;-82
2021/03/14 13:10:15;;;;;;;1.92;1.40;;;11.50;74.60;;;;;;4975756;28;20026;-88
2021/03/14 13:12:41;;;;;;;1.55;1.35;;;11.50;74.60;;;;;;4993082;28;20354;-91
2021/03/14 13:15:18;;;;;;;1.83;1.30;;;11.50;74.50;;;;;;4983060;28;20035;-90